Time;durP1;ratioP1;P1;durP2;ratioP2;P2;SDS_P1;SDS_P2;PMS_P1;PMS_P2;Temp;Humidity;BMP_temperature;BMP_pressure;BME280_temperature;BME280_humidity;BME280_pressure;Samples;Min_cycle;Max_cycle;Signal;HPM_P1;HPM_P2
2021/04/25 00:00:41;;;;;;;10.07;2.13;;;;;;;;;;5016889;28;20029;-61
2021/04/25 00:03:08;;;;;;;11.02;2.10;;;;;;;;;;5015530;28;20018;-61
2021/04/25 00:05:35;;;;;;;15.73;2.28;;;;;;;;;;5031874;28;20030;-62
2021/04/25 00:08:02;;;;;;;9.65;1.88;;;;;;;;;;5032178;28;20136;-61
2021/04/25 00:10:29;;;;;;;11.68;2.25;;;;;;;;;;5026376;28;20084;-60
2021/04/25 00:12:56;;;;;;;11.07;2.20;;;;;;;;;;5018345;28;20029;-61
2021/04/25 00:15:24;;;;;;;10.32;1.70;;;;;;;;;;5031709;28;20477;-61
2021/04/25 00:17:51;;;;;;;7.45;1.52;;;;;;;;;;5031650;28;20022;-61
2021/04/25 00:20:19;;;;;;;11.73;1.98;;;;;;;;;;5031495;28;20539;-61
2021/04/25 00:22:47;;;;;;;6.57;1.85;;;;;;;;;;5031082;28;20029;-61
2021/04/25 00:25:15;;;;;;;11.68;1.70;;;;;;;;;;5030868;28;20013;-60
2021/04/25 00:27:42;;;;;;;5.65;1.50;;;;;;;;;;5031385;28;20017;-61
2021/04/25 00:30:11;;;;;;;13.63;2.13;;;;;;;;;;5031944;28;20017;-64
2021/04/25 00:32:38;;;;;;;12.60;1.83;;;;;;;;;;5030984;28;20370;-63
2021/04/25 00:35:05;;;;;;;13.60;1.63;;;;;;;;;;5031749;28;20151;-62
2021/04/25 00:37:32;;;;;;;6.30;1.65;;;;;;;;;;5031593;28;20032;-61
2021/04/25 00:39:59;;;;;;;25.50;3.40;;;;;;;;;;5031244;28;20107;-62
2021/04/25 00:42:28;;;;;;;11.35;2.13;;;;;;;;;;5029916;28;20033;-65
2021/04/25 00:44:55;;;;;;;11.30;2.17;;;;;;;;;;5030358;28;20127;-61
2021/04/25 00:47:22;;;;;;;13.63;1.90;;;;;;;;;;5030472;28;20047;-63
2021/04/25 00:49:49;;;;;;;8.20;2.45;;;;;;;;;;5030593;28;20129;-62
2021/04/25 00:52:16;;;;;;;8.38;1.70;;;;;;;;;;5030985;28;20520;-61
2021/04/25 00:54:43;;;;;;;13.82;2.17;;;;;;;;;;5030330;28;20466;-63
2021/04/25 00:57:14;;;;;;;10.95;2.00;;;;;;;;;;5031196;28;20028;-61
2021/04/25 00:59:42;;;;;;;7.82;1.83;;;;;;;;;;5031236;28;20072;-61
2021/04/25 01:02:10;;;;;;;13.48;2.00;;;;;;;;;;5031450;28;20052;-60
2021/04/25 01:04:37;;;;;;;9.70;1.73;;;;;;;;;;5030963;28;20030;-62
2021/04/25 01:07:04;;;;;;;7.68;1.80;;;;;;;;;;5031139;28;20080;-62
2021/04/25 01:09:32;;;;;;;6.57;2.00;;;;;;;;;;5026949;28;20677;-60
2021/04/25 01:11:59;;;;;;;10.30;1.63;;;;;;;;;;5028729;28;20465;-61
2021/04/25 01:14:26;;;;;;;6.47;1.75;;;;;;;;;;5030389;28;20027;-61
2021/04/25 01:16:53;;;;;;;6.97;1.90;;;;;;;;;;5031499;28;20021;-60
2021/04/25 01:19:20;;;;;;;6.30;1.80;;;;;;;;;;5028958;28;20026;-60
2021/04/25 01:21:47;;;;;;;12.32;1.98;;;;;;;;;;5024970;28;20013;-62
2021/04/25 01:24:14;;;;;;;10.80;2.05;;;;;;;;;;5011886;28;20032;-60
2021/04/25 01:26:41;;;;;;;12.23;2.30;;;;;;;;;;5028595;28;20017;-60
2021/04/25 01:29:08;;;;;;;7.13;1.92;;;;;;;;;;5023285;28;20025;-60
2021/04/25 01:31:35;;;;;;;24.10;3.08;;;;;;;;;;5030458;28;20037;-59
2021/04/25 01:34:02;;;;;;;15.93;2.40;;;;;;;;;;5028923;28;20116;-59
2021/04/25 01:36:29;;;;;;;13.85;2.00;;;;;;;;;;5029176;28;20041;-61
2021/04/25 01:38:57;;;;;;;10.40;2.40;;;;;;;;;;5028882;28;20377;-62
2021/04/25 01:41:24;;;;;;;5.50;2.05;;;;;;;;;;5030543;28;20079;-64
2021/04/25 01:43:51;;;;;;;10.32;2.17;;;;;;;;;;5029302;28;20068;-62
2021/04/25 01:46:18;;;;;;;13.50;2.10;;;;;;;;;;5027880;28;20559;-61
2021/04/25 01:48:45;;;;;;;9.18;2.65;;;;;;;;;;5021173;28;20078;-63
2021/04/25 01:51:13;;;;;;;6.28;1.80;;;;;;;;;;5029959;28;20033;-62
2021/04/25 01:53:42;;;;;;;10.15;1.80;;;;;;;;;;5026235;28;20026;-60
2021/04/25 01:56:09;;;;;;;11.82;2.70;;;;;;;;;;5024220;28;20025;-62
2021/04/25 01:58:38;;;;;;;10.23;2.83;;;;;;;;;;5025879;28;20386;-62
2021/04/25 02:01:07;;;;;;;11.73;2.22;;;;;;;;;;5028865;28;20017;-63
2021/04/25 02:03:34;;;;;;;12.38;2.38;;;;;;;;;;5024166;28;20082;-60
2021/04/25 02:06:02;;;;;;;13.30;2.63;;;;;;;;;;5027492;28;20500;-63
2021/04/25 02:08:29;;;;;;;9.50;2.20;;;;;;;;;;5027604;28;20022;-62
2021/04/25 02:10:57;;;;;;;9.77;2.10;;;;;;;;;;5018392;28;20421;-62
2021/04/25 02:13:25;;;;;;;12.35;2.15;;;;;;;;;;5032685;28;20549;-60
2021/04/25 02:15:52;;;;;;;11.10;2.08;;;;;;;;;;5032568;28;20140;-60
2021/04/25 02:18:20;;;;;;;14.80;2.58;;;;;;;;;;5032852;28;20014;-61
2021/04/25 02:20:47;;;;;;;17.20;2.60;;;;;;;;;;5033197;28;20017;-62
2021/04/25 02:23:15;;;;;;;8.82;1.70;;;;;;;;;;5030469;28;20025;-62
2021/04/25 02:25:45;;;;;;;8.15;2.13;;;;;;;;;;5026693;28;20172;-61
2021/04/25 02:28:13;;;;;;;10.55;2.50;;;;;;;;;;5030687;28;20032;-61
2021/04/25 02:30:42;;;;;;;8.07;2.22;;;;;;;;;;5032260;28;20112;-66
2021/04/25 02:33:09;;;;;;;9.57;2.70;;;;;;;;;;5024404;28;20029;-62
2021/04/25 02:35:36;;;;;;;11.35;3.03;;;;;;;;;;5015450;28;20386;-61
2021/04/25 02:38:04;;;;;;;7.75;1.98;;;;;;;;;;5029347;28;20021;-60
2021/04/25 02:40:34;;;;;;;12.35;2.10;;;;;;;;;;5018680;28;20121;-60
2021/04/25 02:43:04;;;;;;;10.45;2.28;;;;;;;;;;5034466;28;20085;-62
2021/04/25 02:45:32;;;;;;;12.82;2.85;;;;;;;;;;5030139;28;20072;-59
2021/04/25 02:48:01;;;;;;;5.25;1.70;;;;;;;;;;5030635;28;20509;-62
2021/04/25 02:50:30;;;;;;;7.28;2.03;;;;;;;;;;5031116;28;20025;-63
2021/04/25 02:52:58;;;;;;;5.25;2.08;;;;;;;;;;5032201;28;20057;-61
2021/04/25 02:55:26;;;;;;;8.80;2.40;;;;;;;;;;5030775;28;20152;-62
2021/04/25 02:57:54;;;;;;;4.90;2.47;;;;;;;;;;5024862;28;20178;-61
2021/04/25 03:00:23;;;;;;;8.10;2.10;;;;;;;;;;5025382;28;20029;-64
2021/04/25 03:02:50;;;;;;;8.85;2.53;;;;;;;;;;5030949;28;20029;-64
2021/04/25 03:05:18;;;;;;;5.40;2.35;;;;;;;;;;5031884;28;20104;-63
2021/04/25 03:07:46;;;;;;;8.52;2.17;;;;;;;;;;5031023;28;20041;-63
2021/04/25 03:10:15;;;;;;;7.22;2.20;;;;;;;;;;5028810;28;20639;-63
2021/04/25 03:12:42;;;;;;;8.30;2.28;;;;;;;;;;5030226;28;20044;-63
2021/04/25 03:15:11;;;;;;;9.05;2.63;;;;;;;;;;5031841;28;20021;-62
2021/04/25 03:17:39;;;;;;;12.10;2.58;;;;;;;;;;5030137;28;20033;-62
2021/04/25 03:20:08;;;;;;;9.18;2.60;;;;;;;;;;5025686;28;20014;-62
2021/04/25 03:22:35;;;;;;;5.35;2.67;;;;;;;;;;5020486;28;20025;-60
2021/04/25 03:25:04;;;;;;;7.00;2.65;;;;;;;;;;5030932;28;20035;-61
2021/04/25 03:27:31;;;;;;;7.03;2.22;;;;;;;;;;5030362;28;20140;-63
2021/04/25 03:29:58;;;;;;;9.43;2.72;;;;;;;;;;5030811;28;20033;-61
2021/04/25 03:32:25;;;;;;;7.15;2.45;;;;;;;;;;5020137;28;20428;-62
2021/04/25 03:34:53;;;;;;;12.02;3.28;;;;;;;;;;5026937;28;20013;-61
2021/04/25 03:37:20;;;;;;;5.97;2.60;;;;;;;;;;5028819;28;20029;-65
2021/04/25 03:39:48;;;;;;;4.65;2.60;;;;;;;;;;5047192;28;20021;-63
2021/04/25 03:42:15;;;;;;;7.95;2.15;;;;;;;;;;5052308;28;20043;-62
2021/04/25 03:44:42;;;;;;;5.72;2.40;;;;;;;;;;5048102;28;20064;-60
2021/04/25 03:47:09;;;;;;;6.00;2.35;;;;;;;;;;5030361;28;20065;-64
2021/04/25 03:49:36;;;;;;;7.85;2.40;;;;;;;;;;5030507;28;20022;-60
2021/04/25 03:52:03;;;;;;;4.35;2.17;;;;;;;;;;5028792;28;20148;-62
2021/04/25 03:54:32;;;;;;;7.53;2.58;;;;;;;;;;5025078;28;20049;-61
2021/04/25 03:57:00;;;;;;;6.60;3.05;;;;;;;;;;5030123;28;20104;-62
2021/04/25 03:59:27;;;;;;;5.85;2.78;;;;;;;;;;5029415;28;20030;-60
2021/04/25 04:01:54;;;;;;;6.13;2.65;;;;;;;;;;5032906;28;20109;-61
2021/04/25 04:04:22;;;;;;;5.43;2.60;;;;;;;;;;5029250;28;20017;-63
2021/04/25 04:06:49;;;;;;;3.85;2.42;;;;;;;;;;5022090;28;20123;-61
2021/04/25 04:09:17;;;;;;;5.78;2.28;;;;;;;;;;5025389;28;20087;-61
2021/04/25 04:11:46;;;;;;;5.35;2.55;;;;;;;;;;5025408;28;20390;-61
2021/04/25 04:14:13;;;;;;;5.95;2.38;;;;;;;;;;5023305;28;20113;-61
2021/04/25 04:16:41;;;;;;;5.95;2.30;;;;;;;;;;5023202;28;20053;-63
2021/04/25 04:19:08;;;;;;;5.88;2.75;;;;;;;;;;5022427;28;20021;-62
2021/04/25 04:21:36;;;;;;;6.57;2.25;;;;;;;;;;5021711;28;20032;-60
2021/04/25 04:24:03;;;;;;;4.53;2.20;;;;;;;;;;5021339;28;20064;-60
2021/04/25 04:26:30;;;;;;;7.25;2.42;;;;;;;;;;5020304;28;20063;-60
2021/04/25 04:28:57;;;;;;;9.35;2.50;;;;;;;;;;5014282;28;20017;-61
2021/04/25 04:31:25;;;;;;;5.68;2.40;;;;;;;;;;5031142;28;20120;-63
2021/04/25 04:33:52;;;;;;;6.90;2.40;;;;;;;;;;5032865;28;20025;-62
2021/04/25 04:36:19;;;;;;;8.93;2.38;;;;;;;;;;5032259;28;20036;-60
2021/04/25 04:38:51;;;;;;;5.38;2.50;;;;;;;;;;5032513;28;20060;-65
2021/04/25 04:41:18;;;;;;;10.60;2.63;;;;;;;;;;5032658;28;20030;-64
2021/04/25 04:43:46;;;;;;;7.28;2.70;;;;;;;;;;5032147;28;20358;-62
2021/04/25 04:46:13;;;;;;;7.07;2.50;;;;;;;;;;5032713;28;20029;-62
2021/04/25 04:48:40;;;;;;;5.47;2.45;;;;;;;;;;5032036;28;20124;-61
2021/04/25 04:51:07;;;;;;;5.00;2.63;;;;;;;;;;5031663;28;20025;-61
2021/04/25 04:53:34;;;;;;;5.13;2.88;;;;;;;;;;5031811;28;20385;-60
2021/04/25 04:56:01;;;;;;;4.63;2.40;;;;;;;;;;5032651;28;20014;-61
2021/04/25 04:58:28;;;;;;;5.57;2.45;;;;;;;;;;5031778;28;20076;-62
2021/04/25 05:00:55;;;;;;;3.65;2.15;;;;;;;;;;5032293;28;20021;-61
2021/04/25 05:03:22;;;;;;;4.50;2.50;;;;;;;;;;5032288;28;20144;-60
2021/04/25 05:05:49;;;;;;;5.80;2.67;;;;;;;;;;5032781;28;20033;-61
2021/04/25 05:08:16;;;;;;;3.90;2.33;;;;;;;;;;5032241;28;20393;-62
2021/04/25 05:10:43;;;;;;;4.82;2.38;;;;;;;;;;5032549;28;20033;-61
2021/04/25 05:13:11;;;;;;;5.05;2.42;;;;;;;;;;5032369;28;20039;-62
2021/04/25 05:15:38;;;;;;;7.60;2.85;;;;;;;;;;5032319;28;20036;-64
2021/04/25 05:18:06;;;;;;;5.80;2.45;;;;;;;;;;5032321;28;20485;-61
2021/04/25 05:20:33;;;;;;;4.80;2.78;;;;;;;;;;5031953;28;20022;-64
2021/04/25 05:23:00;;;;;;;4.63;2.67;;;;;;;;;;5032276;28;20026;-64
2021/04/25 05:25:28;;;;;;;4.53;2.85;;;;;;;;;;5030842;28;20499;-62
2021/04/25 05:27:55;;;;;;;4.57;2.60;;;;;;;;;;5032522;28;20032;-62
2021/04/25 05:30:23;;;;;;;5.00;2.67;;;;;;;;;;5031766;28;20026;-62
2021/04/25 05:32:50;;;;;;;4.78;2.47;;;;;;;;;;5031969;28;20481;-64
2021/04/25 05:35:17;;;;;;;2.80;2.15;;;;;;;;;;5032125;28;20025;-63
2021/04/25 05:37:44;;;;;;;5.80;2.63;;;;;;;;;;5032421;28;20595;-64
2021/04/25 05:40:12;;;;;;;4.20;2.55;;;;;;;;;;5031835;28;20092;-63
2021/04/25 05:42:40;;;;;;;4.55;2.40;;;;;;;;;;5032283;28;20469;-62
2021/04/25 05:45:07;;;;;;;6.97;2.80;;;;;;;;;;5031935;28;20108;-63
2021/04/25 05:47:34;;;;;;;4.28;2.53;;;;;;;;;;5032117;28;20040;-63
2021/04/25 05:50:01;;;;;;;5.95;2.80;;;;;;;;;;5032023;28;20503;-61
2021/04/25 05:52:28;;;;;;;3.15;2.45;;;;;;;;;;5031893;28;20037;-63
2021/04/25 05:54:55;;;;;;;3.53;2.33;;;;;;;;;;5032152;28;20384;-62
2021/04/25 05:57:22;;;;;;;4.07;2.65;;;;;;;;;;5031840;28;20032;-65
2021/04/25 05:59:49;;;;;;;3.35;2.42;;;;;;;;;;5032163;28;20017;-66
2021/04/25 06:02:17;;;;;;;8.05;2.60;;;;;;;;;;5023018;28;20109;-62
2021/04/25 06:04:44;;;;;;;3.63;2.33;;;;;;;;;;5027275;28;20457;-64
2021/04/25 06:07:11;;;;;;;4.05;2.47;;;;;;;;;;5047218;28;20056;-64
2021/04/25 06:09:38;;;;;;;5.18;2.55;;;;;;;;;;5046218;28;20013;-65
2021/04/25 06:12:05;;;;;;;8.38;2.90;;;;;;;;;;5051587;28;20044;-63
2021/04/25 06:14:32;;;;;;;2.92;2.03;;;;;;;;;;5051737;28;20397;-65
2021/04/25 06:16:59;;;;;;;3.33;2.28;;;;;;;;;;5042620;28;20076;-66
2021/04/25 06:19:26;;;;;;;6.45;2.38;;;;;;;;;;5032357;28;20580;-66
2021/04/25 06:21:53;;;;;;;4.93;2.40;;;;;;;;;;5031471;28;20075;-66
2021/04/25 06:24:20;;;;;;;3.75;2.38;;;;;;;;;;5031585;28;20026;-66
2021/04/25 06:26:47;;;;;;;5.03;2.67;;;;;;;;;;5031625;28;20432;-66
2021/04/25 06:29:14;;;;;;;3.53;2.15;;;;;;;;;;5031878;28;20017;-66
2021/04/25 06:31:41;;;;;;;4.07;2.53;;;;;;;;;;5031626;28;20120;-65
2021/04/25 06:34:08;;;;;;;4.25;2.60;;;;;;;;;;5031222;28;20022;-65
2021/04/25 06:36:41;;;;;;;7.07;3.35;;;;;;;;;;5032544;28;20416;-65
2021/04/25 06:39:08;;;;;;;4.00;2.13;;;;;;;;;;5034346;28;20101;-65
2021/04/25 06:41:35;;;;;;;3.70;2.47;;;;;;;;;;5035488;28;20029;-65
2021/04/25 06:44:02;;;;;;;3.22;2.00;;;;;;;;;;5034911;28;20027;-65
2021/04/25 06:46:30;;;;;;;4.05;2.58;;;;;;;;;;5033947;28;20473;-65
2021/04/25 06:48:57;;;;;;;3.72;2.42;;;;;;;;;;5034837;28;20112;-64
2021/04/25 06:51:25;;;;;;;2.65;2.17;;;;;;;;;;5035408;28;20099;-65
2021/04/25 06:53:53;;;;;;;4.03;2.40;;;;;;;;;;5034575;28;20025;-66
2021/04/25 06:56:20;;;;;;;3.42;2.30;;;;;;;;;;5034976;28;20041;-65
2021/04/25 06:58:47;;;;;;;3.38;2.33;;;;;;;;;;5035084;28;20864;-65
2021/04/25 07:01:14;;;;;;;3.63;2.42;;;;;;;;;;5035030;28;20025;-64
2021/04/25 07:03:41;;;;;;;4.57;2.90;;;;;;;;;;5034693;28;20491;-64
2021/04/25 07:06:08;;;;;;;5.50;2.38;;;;;;;;;;5034625;28;20103;-65
2021/04/25 07:08:35;;;;;;;3.22;2.10;;;;;;;;;;5035063;28;20025;-64
2021/04/25 07:11:02;;;;;;;3.92;2.53;;;;;;;;;;5034386;28;20508;-65
2021/04/25 07:13:30;;;;;;;3.50;2.38;;;;;;;;;;5034817;28;20053;-61
2021/04/25 07:15:57;;;;;;;3.03;2.10;;;;;;;;;;5034358;28;20520;-60
2021/04/25 07:18:24;;;;;;;2.92;2.17;;;;;;;;;;5034756;28;20381;-60
2021/04/25 07:20:54;;;;;;;4.22;2.40;;;;;;;;;;5034480;28;20024;-61
2021/04/25 07:23:24;;;;;;;4.15;2.38;;;;;;;;;;5034761;28;20393;-61
2021/04/25 07:25:52;;;;;;;3.47;1.98;;;;;;;;;;5034071;28;20026;-61
2021/04/25 07:28:19;;;;;;;3.75;1.80;;;;;;;;;;5034477;28;20046;-61
2021/04/25 07:30:47;;;;;;;3.20;2.03;;;;;;;;;;5195779;22;20355;-62
2021/04/25 07:33:15;;;;;;;2.75;1.90;;;;;;;;;;5033048;28;20031;-65
2021/04/25 07:35:43;;;;;;;3.45;1.80;;;;;;;;;;5033024;28;20032;-64
2021/04/25 07:38:10;;;;;;;2.50;1.77;;;;;;;;;;5033363;28;20112;-64
2021/04/25 07:40:38;;;;;;;3.15;2.13;;;;;;;;;;5033687;28;20025;-65
2021/04/25 07:43:08;;;;;;;3.15;2.05;;;;;;;;;;5033736;28;20021;-65
2021/04/25 07:45:35;;;;;;;2.72;1.77;;;;;;;;;;5033937;28;20044;-64
2021/04/25 07:48:02;;;;;;;3.20;1.90;;;;;;;;;;5032518;28;20030;-64
2021/04/25 07:50:29;;;;;;;2.40;2.00;;;;;;;;;;5033918;28;20097;-64
2021/04/25 07:52:57;;;;;;;1.83;1.55;;;;;;;;;;5033276;28;20154;-64
2021/04/25 07:55:24;;;;;;;2.80;2.10;;;;;;;;;;5033807;28;20044;-65
2021/04/25 07:57:51;;;;;;;2.70;1.80;;;;;;;;;;5033161;28;20033;-60
2021/04/25 08:00:18;;;;;;;2.47;1.80;;;;;;;;;;5033742;28;20051;-61
2021/04/25 08:02:45;;;;;;;2.65;1.77;;;;;;;;;;5033890;28;20024;-59
2021/04/25 08:05:13;;;;;;;2.58;1.80;;;;;;;;;;5033395;28;20032;-60
2021/04/25 08:07:40;;;;;;;3.13;1.90;;;;;;;;;;5033380;28;20021;-60
2021/04/25 08:10:08;;;;;;;3.00;2.38;;;;;;;;;;5032692;28;20024;-60
2021/04/25 08:12:35;;;;;;;3.10;1.70;;;;;;;;;;5033291;28;20040;-60
2021/04/25 08:15:02;;;;;;;2.58;1.83;;;;;;;;;;5032670;28;20358;-62
2021/04/25 08:17:29;;;;;;;2.92;1.90;;;;;;;;;;5033396;28;20033;-62
2021/04/25 08:19:56;;;;;;;2.65;1.75;;;;;;;;;;5032957;28;20071;-61
2021/04/25 08:22:23;;;;;;;2.88;1.95;;;;;;;;;;5033462;28;20032;-60
2021/04/25 08:24:50;;;;;;;2.63;1.77;;;;;;;;;;5032601;28;20370;-61
2021/04/25 08:27:17;;;;;;;2.28;1.77;;;;;;;;;;5032970;28;20473;-62
2021/04/25 08:29:44;;;;;;;3.75;1.70;;;;;;;;;;5032806;28;20083;-61
2021/04/25 08:32:11;;;;;;;2.30;1.42;;;;;;;;;;5032755;28;20050;-64
2021/04/25 08:34:38;;;;;;;2.85;1.75;;;;;;;;;;5032454;28;20028;-62
2021/04/25 08:37:05;;;;;;;2.53;1.70;;;;;;;;;;5032897;28;20029;-62
2021/04/25 08:39:32;;;;;;;2.58;1.60;;;;;;;;;;5031500;28;20029;-61
2021/04/25 08:41:59;;;;;;;2.22;1.50;;;;;;;;;;5032804;28;20112;-61
2021/04/25 08:44:27;;;;;;;1.90;1.27;;;;;;;;;;5032789;28;20059;-63
2021/04/25 08:46:54;;;;;;;2.08;1.50;;;;;;;;;;5031991;28;20381;-63
2021/04/25 08:49:26;;;;;;;3.15;1.52;;;;;;;;;;5031480;28;20032;-60
2021/04/25 08:51:54;;;;;;;2.28;1.70;;;;;;;;;;5032136;28;20041;-63
2021/04/25 08:54:24;;;;;;;3.17;1.80;;;;;;;;;;5032704;28;20486;-63
2021/04/25 08:56:52;;;;;;;2.53;1.63;;;;;;;;;;5032185;28;20034;-66
2021/04/25 08:59:19;;;;;;;2.25;1.60;;;;;;;;;;5032329;28;20013;-64
2021/04/25 09:01:47;;;;;;;3.30;1.98;;;;;;;;;;5032065;28;20028;-66
2021/04/25 09:04:14;;;;;;;1.67;1.20;;;;;;;;;;5032456;28;20048;-62
2021/04/25 09:07:00;;;;;;;3.03;1.50;;;;;;;;;;5031632;28;20060;-64
2021/04/25 09:09:52;;;;;;;1.77;1.42;;;;;;;;;;5032474;28;20024;-63
2021/04/25 09:12:32;;;;;;;1.75;1.40;;;;;;;;;;5029289;28;20042;-64
2021/04/25 09:14:59;;;;;;;1.95;1.52;;;;;;;;;;5032368;28;20021;-63
2021/04/25 09:17:26;;;;;;;1.48;1.20;;;;;;;;;;5031599;28;20025;-65
2021/04/25 09:19:56;;;;;;;1.75;1.20;;;;;;;;;;5032336;28;20034;-66
2021/04/25 09:22:42;;;;;;;2.13;1.33;;;;;;;;;;5031718;28;20017;-65
2021/04/25 09:25:14;;;;;;;1.95;1.17;;;;;;;;;;5032174;28;20025;-64
2021/04/25 09:27:41;;;;;;;;;;;;;;;;;;5031922;28;20040;-64
2021/04/25 09:30:08;;;;;;;2.65;1.40;;;;;;;;;;5032310;28;19927;-67
2021/04/25 09:32:35;;;;;;;1.45;1.23;;;;;;;;;;5031256;28;20420;-64
2021/04/25 09:35:17;;;;;;;1.73;1.38;;;;;;;;;;5032077;28;20025;-62
2021/04/25 09:37:45;;;;;;;2.13;1.58;;;;;;;;;;5031380;28;20021;-64
2021/04/25 09:40:13;;;;;;;1.75;0.95;;;;;;;;;;5032217;28;20372;-61
2021/04/25 09:43:01;;;;;;;2.75;1.40;;;;;;;;;;5031233;28;20380;-66
2021/04/25 09:45:28;;;;;;;2.70;1.40;;;;;;;;;;5030928;28;20036;-63
2021/04/25 09:47:56;;;;;;;2.05;1.20;;;;;;;;;;5030784;28;20029;-63
2021/04/25 09:50:23;;;;;;;1.77;1.20;;;;;;;;;;5031467;28;20013;-62
2021/04/25 09:52:51;;;;;;;1.77;1.25;;;;;;;;;;5030975;28;20393;-62
2021/04/25 09:55:18;;;;;;;1.60;1.13;;;;;;;;;;5031630;28;20481;-66
2021/04/25 09:57:46;;;;;;;1.67;1.25;;;;;;;;;;5031348;28;20092;-65
2021/04/25 10:00:14;;;;;;;1.52;1.08;;;;;;;;;;5031023;28;20358;-65
2021/04/25 10:03:02;;;;;;;1.25;1.05;;;;;;;;;;5031200;28;20012;-63
2021/04/25 10:05:30;;;;;;;1.42;1.02;;;;;;;;;;5029926;28;20036;-66
2021/04/25 10:07:58;;;;;;;2.63;1.38;;;;;;;;;;5030841;28;20036;-63
2021/04/25 10:10:25;;;;;;;1.65;1.17;;;;;;;;;;5030835;28;20484;-63
2021/04/25 10:12:52;;;;;;;1.52;1.20;;;;;;;;;;5033896;28;20195;-66
2021/04/25 10:15:21;;;;;;;1.33;1.10;;;;;;;;;;5034867;28;20049;-62
2021/04/25 10:17:49;;;;;;;1.13;0.93;;;;;;;;;;5035009;28;20373;-64
2021/04/25 10:20:17;;;;;;;1.75;1.13;;;;;;;;;;5034659;28;20045;-61
2021/04/25 10:22:45;;;;;;;2.33;1.05;;;;;;;;;;5035000;28;20025;-60
2021/04/25 10:25:15;;;;;;;1.67;1.00;;;;;;;;;;5034768;28;20024;-62
2021/04/25 10:27:44;;;;;;;1.75;1.10;;;;;;;;;;5032504;28;20029;-62
2021/04/25 10:30:13;;;;;;;1.13;0.80;;;;;;;;;;5034538;28;20014;-62
2021/04/25 10:32:42;;;;;;;1.40;1.00;;;;;;;;;;5034483;28;20053;-61
2021/04/25 10:35:14;;;;;;;1.48;1.10;;;;;;;;;;5034360;28;20037;-61
2021/04/25 10:37:41;;;;;;;1.33;1.00;;;;;;;;;;5032211;28;20017;-61
2021/04/25 10:40:17;;;;;;;1.45;1.05;;;;;;;;;;5034266;28;20024;-62
2021/04/25 10:42:53;;;;;;;1.95;1.20;;;;;;;;;;5032590;28;20037;-61
2021/04/25 10:45:30;;;;;;;2.15;1.00;;;;;;;;;;5031981;28;20407;-60
2021/04/25 10:48:16;;;;;;;1.02;0.90;;;;;;;;;;5034632;28;20014;-63
2021/04/25 10:50:43;;;;;;;1.60;1.25;;;;;;;;;;5031521;28;20469;-61
2021/04/25 10:53:27;;;;;;;1.65;0.77;;;;;;;;;;5034477;28;20056;-62
2021/04/25 10:56:30;;;;;;;0.98;0.82;;;;;;;;;;5030574;28;20025;-61
2021/04/25 10:59:15;;;;;;;1.48;1.10;;;;;;;;;;4989459;28;20117;-62
2021/04/25 11:01:46;;;;;;;1.67;1.02;;;;;;;;;;5028565;28;20485;-61
2021/04/25 11:04:33;;;;;;;1.77;0.90;;;;;;;;;;5034485;28;20032;-66
2021/04/25 11:07:20;;;;;;;1.65;1.10;;;;;;;;;;5033513;28;20029;-66
2021/04/25 11:09:56;;;;;;;1.30;1.00;;;;;;;;;;5031988;28;20036;-66
2021/04/25 11:12:35;;;;;;;1.45;0.90;;;;;;;;;;5030829;28;20508;-65
2021/04/25 11:15:03;;;;;;;1.20;0.85;;;;;;;;;;5034293;28;20021;-66
2021/04/25 11:17:30;;;;;;;1.30;1.00;;;;;;;;;;5033470;28;20097;-64
2021/04/25 11:19:57;;;;;;;1.10;1.00;;;;;;;;;;5034160;28;20053;-66
2021/04/25 11:22:43;;;;;;;1.90;0.98;;;;;;;;;;5032851;28;20547;-62
2021/04/25 11:25:27;;;;;;;0.80;0.70;;;;;;;;;;5031891;28;20507;-64
2021/04/25 11:27:54;;;;;;;0.80;0.68;;;;;;;;;;5031860;28;20029;-65
2021/04/25 11:30:49;;;;;;;0.88;0.80;;;;;;;;;;5033632;28;20063;-66
2021/04/25 11:33:34;;;;;;;1.63;0.80;;;;;;;;;;5016879;28;20123;-62
2021/04/25 11:36:19;;;;;;;1.45;0.93;;;;;;;;;;5033215;28;20052;-64
2021/04/25 11:38:47;;;;;;;2.75;1.00;;;;;;;;;;5032891;28;20089;-64
2021/04/25 11:41:14;;;;;;;1.30;0.80;;;;;;;;;;5033532;28;20021;-65
2021/04/25 11:43:44;;;;;;;1.08;0.70;;;;;;;;;;5033261;28;20032;-65
2021/04/25 11:46:11;;;;;;;0.90;0.70;;;;;;;;;;5033417;28;20101;-64
2021/04/25 11:48:54;;;;;;;2.58;0.90;;;;;;;;;;5032495;28;20631;-65
2021/04/25 11:51:23;;;;;;;1.23;0.70;;;;;;;;;;5033324;28;20026;-63
2021/04/25 11:53:50;;;;;;;1.30;0.90;;;;;;;;;;5032796;28;20036;-65
2021/04/25 11:56:44;;;;;;;2.30;1.40;;;;;;;;;;5032234;28;20014;-64
2021/04/25 11:59:12;;;;;;;1.30;0.77;;;;;;;;;;5028144;28;20037;-64
2021/04/25 12:01:39;;;;;;;1.10;0.60;;;;;;;;;;5033179;28;20148;-66
2021/04/25 12:04:06;;;;;;;1.20;0.85;;;;;;;;;;5032881;28;20017;-61
2021/04/25 12:06:49;;;;;;;0.70;0.60;;;;;;;;;;5032837;28;20025;-64
2021/04/25 12:09:16;;;;;;;1.45;0.60;;;;;;;;;;5031585;28;20064;-61
2021/04/25 12:11:44;;;;;;;1.45;0.70;;;;;;;;;;5032356;28;20132;-66
2021/04/25 12:14:20;;;;;;;0.98;0.80;;;;;;;;;;5030662;28;20028;-65
2021/04/25 12:16:47;;;;;;;1.35;0.80;;;;;;;;;;5032591;28;20018;-64
2021/04/25 12:19:24;;;;;;;0.90;0.60;;;;;;;;;;5032754;28;20420;-63
2021/04/25 12:21:52;;;;;;;0.90;0.57;;;;;;;;;;5032473;28;20021;-62
2021/04/25 12:24:22;;;;;;;2.13;0.82;;;;;;;;;;5031832;28;20026;-63
2021/04/25 12:26:49;;;;;;;1.60;0.85;;;;;;;;;;5032473;28;20377;-62
2021/04/25 12:29:32;;;;;;;1.42;0.90;;;;;;;;;;5032304;28;20017;-60
2021/04/25 12:31:59;;;;;;;0.98;0.60;;;;;;;;;;5030037;28;20065;-62
2021/04/25 12:34:31;;;;;;;1.63;0.63;;;;;;;;;;5032077;28;20025;-64
2021/04/25 12:36:59;;;;;;;1.42;0.80;;;;;;;;;;5031404;28;20056;-62
2021/04/25 12:39:42;;;;;;;2.58;0.60;;;;;;;;;;5032866;28;20032;-62
2021/04/25 12:42:29;;;;;;;0.73;0.60;;;;;;;;;;5032299;28;20025;-61
2021/04/25 12:44:56;;;;;;;0.85;0.70;;;;;;;;;;5032968;28;20088;-62
2021/04/25 12:47:30;;;;;;;1.15;0.82;;;;;;;;;;5032189;28;20021;-61
2021/04/25 12:49:57;;;;;;;1.50;0.90;;;;;;;;;;5032673;28;20044;-62
2021/04/25 12:52:35;;;;;;;1.17;0.70;;;;;;;;;;5031996;28;20041;-61
2021/04/25 12:55:02;;;;;;;1.00;0.60;;;;;;;;;;5032698;28;20025;-61
2021/04/25 12:57:29;;;;;;;0.85;0.65;;;;;;;;;;5032162;28;20025;-61
2021/04/25 12:59:57;;;;;;;1.63;0.70;;;;;;;;;;5032503;28;20094;-62
2021/04/25 13:02:32;;;;;;;1.15;0.60;;;;;;;;;;5031770;28;20087;-61
2021/04/25 13:05:09;;;;;;;1.25;0.85;;;;;;;;;;5032419;28;20029;-64
2021/04/25 13:07:44;;;;;;;2.15;0.70;;;;;;;;;;5031665;28;20033;-63
2021/04/25 13:10:15;;;;;;;4.15;0.90;;;;;;;;;;5032545;28;20049;-62
2021/04/25 13:12:46;;;;;;;4.45;0.80;;;;;;;;;;5032042;28;20034;-61
2021/04/25 13:15:21;;;;;;;1.42;0.60;;;;;;;;;;5032170;28;20030;-61
2021/04/25 13:17:58;;;;;;;0.55;0.50;;;;;;;;;;5030490;28;20427;-61
2021/04/25 13:20:27;;;;;;;1.90;0.70;;;;;;;;;;5031326;28;20056;-60
2021/04/25 13:22:59;;;;;;;0.75;0.57;;;;;;;;;;5032337;28;20369;-61
2021/04/25 13:25:27;;;;;;;0.90;0.60;;;;;;;;;;5031527;28;20037;-62
2021/04/25 13:27:58;;;;;;;1.92;0.95;;;;;;;;;;5022491;28;20050;-62
2021/04/25 13:30:26;;;;;;;1.33;0.75;;;;;;;;;;5027499;28;20026;-61
2021/04/25 13:32:53;;;;;;;6.45;0.85;;;;;;;;;;5020446;28;20072;-62
2021/04/25 13:35:21;;;;;;;3.17;0.93;;;;;;;;;;5028461;28;20025;-61
2021/04/25 13:37:48;;;;;;;7.47;0.75;;;;;;;;;;5030875;28;20025;-61
2021/04/25 13:40:15;;;;;;;1.70;0.90;;;;;;;;;;5030181;28;20030;-61
2021/04/25 13:42:42;;;;;;;1.88;0.75;;;;;;;;;;5030025;28;20169;-60
2021/04/25 13:45:09;;;;;;;2.53;0.65;;;;;;;;;;5028332;28;20106;-64
2021/04/25 13:47:36;;;;;;;7.03;0.60;;;;;;;;;;5029822;28;20018;-60
2021/04/25 13:50:06;;;;;;;2.92;0.70;;;;;;;;;;5031013;28;20018;-61
2021/04/25 13:52:36;;;;;;;3.15;0.90;;;;;;;;;;5030500;28;20030;-61
2021/04/25 13:55:07;;;;;;;2.25;0.60;;;;;;;;;;5029654;28;20026;-63
2021/04/25 13:57:34;;;;;;;1.60;0.80;;;;;;;;;;5028584;28;20025;-63
2021/04/25 14:00:01;;;;;;;1.17;0.55;;;;;;;;;;5030828;28;20022;-63
2021/04/25 14:02:29;;;;;;;2.63;0.82;;;;;;;;;;5030502;28;20021;-61
2021/04/25 14:04:56;;;;;;;15.18;1.13;;;;;;;;;;5029055;28;20499;-66
2021/04/25 14:07:24;;;;;;;2.05;0.80;;;;;;;;;;5027209;28;20030;-63
2021/04/25 14:09:51;;;;;;;3.08;0.70;;;;;;;;;;5028706;28;20552;-65
2021/04/25 14:12:18;;;;;;;3.85;0.90;;;;;;;;;;5029607;28;20048;-61
2021/04/25 14:14:45;;;;;;;3.15;0.80;;;;;;;;;;5030250;28;20021;-62
2021/04/25 14:17:12;;;;;;;1.98;1.20;;;;;;;;;;5029216;28;20036;-64
2021/04/25 14:19:39;;;;;;;4.43;1.23;;;;;;;;;;5027593;28;20097;-62
2021/04/25 14:22:07;;;;;;;4.88;1.65;;;;;;;;;;5028717;28;20025;-64
2021/04/25 14:24:34;;;;;;;6.28;1.50;;;;;;;;;;5029521;28;20024;-67
2021/04/25 14:27:01;;;;;;;6.80;1.70;;;;;;;;;;5029183;28;20026;-65
2021/04/25 14:29:28;;;;;;;8.75;2.20;;;;;;;;;;5012885;28;20097;-65
2021/04/25 14:31:55;;;;;;;4.88;1.60;;;;;;;;;;5018877;28;20163;-65
2021/04/25 14:34:22;;;;;;;6.38;2.25;;;;;;;;;;5028062;28;20730;-64
2021/04/25 14:36:49;;;;;;;7.80;2.78;;;;;;;;;;5029464;28;20018;-63
2021/04/25 14:39:16;;;;;;;7.32;3.58;;;;;;;;;;5028299;28;20021;-73
2021/04/25 14:41:43;;;;;;;7.82;3.70;;;;;;;;;;5029150;28;20473;-71
2021/04/25 14:44:10;;;;;;;10.32;3.85;;;;;;;;;;5025093;28;20095;-68
2021/04/25 14:46:38;;;;;;;10.55;4.55;;;;;;;;;;5024586;28;20442;-64
2021/04/25 14:49:05;;;;;;;10.55;5.10;;;;;;;;;;5029735;28;20025;-65
2021/04/25 14:51:33;;;;;;;9.10;4.72;;;;;;;;;;5029498;28;20037;-62